sensor_id;sensor_type;location;lat;lon;timestamp;P1;durP1;ratioP1;P2;durP2;ratioP2
72797;SDS011;61084;55.816;37.036;2023-10-09T00:01:07;0.00;;;0.00;;
72797;SDS011;61084;55.816;37.036;2023-10-09T00:03:40;0.15;;;0.00;;
72797;SDS011;61084;55.816;37.036;2023-10-09T00:06:08;0.00;;;0.00;;
72797;SDS011;61084;55.816;37.036;2023-10-09T00:08:37;0.00;;;0.00;;
72797;SDS011;61084;55.816;37.036;2023-10-09T00:11:05;0.00;;;0.00;;
72797;SDS011;61084;55.816;37.036;2023-10-09T00:13:43;0.00;;;0.00;;
72797;SDS011;61084;55.816;37.036;2023-10-09T00:16:18;0.00;;;0.00;;
72797;SDS011;61084;55.816;37.036;2023-10-09T00:19:12;0.32;;;0.00;;
72797;SDS011;61084;55.816;37.036;2023-10-09T00:21:59;0.00;;;0.00;;
72797;SDS011;61084;55.816;37.036;2023-10-09T00:24:36;0.10;;;0.10;;
72797;SDS011;61084;55.816;37.036;2023-10-09T00:27:10;0.03;;;0.00;;
72797;SDS011;61084;55.816;37.036;2023-10-09T00:29:44;0.00;;;0.00;;
72797;SDS011;61084;55.816;37.036;2023-10-09T00:32:11;2.08;;;0.10;;
72797;SDS011;61084;55.816;37.036;2023-10-09T00:34:58;0.00;;;0.00;;
72797;SDS011;61084;55.816;37.036;2023-10-09T00:37:39;0.00;;;0.00;;
72797;SDS011;61084;55.816;37.036;2023-10-09T00:40:05;0.05;;;0.00;;
72797;SDS011;61084;55.816;37.036;2023-10-09T00:42:45;0.22;;;0.00;;
72797;SDS011;61084;55.816;37.036;2023-10-09T00:45:12;0.10;;;0.00;;
72797;SDS011;61084;55.816;37.036;2023-10-09T00:47:50;0.35;;;0.10;;
72797;SDS011;61084;55.816;37.036;2023-10-09T00:50:21;0.10;;;0.00;;
72797;SDS011;61084;55.816;37.036;2023-10-09T00:52:51;0.13;;;0.05;;
72797;SDS011;61084;55.816;37.036;2023-10-09T00:55:27;0.30;;;0.10;;
72797;SDS011;61084;55.816;37.036;2023-10-09T00:58:04;0.00;;;0.00;;
72797;SDS011;61084;55.816;37.036;2023-10-09T01:00:41;0.10;;;0.00;;
72797;SDS011;61084;55.816;37.036;2023-10-09T01:03:15;0.00;;;0.00;;
72797;SDS011;61084;55.816;37.036;2023-10-09T01:05:46;0.00;;;0.00;;
72797;SDS011;61084;55.816;37.036;2023-10-09T01:08:19;0.57;;;0.10;;
72797;SDS011;61084;55.816;37.036;2023-10-09T01:11:05;0.10;;;0.10;;
72797;SDS011;61084;55.816;37.036;2023-10-09T01:13:44;1.75;;;0.10;;
72797;SDS011;61084;55.816;37.036;2023-10-09T01:16:11;0.10;;;0.10;;
72797;SDS011;61084;55.816;37.036;2023-10-09T01:18:44;0.00;;;0.00;;
72797;SDS011;61084;55.816;37.036;2023-10-09T01:21:12;0.10;;;0.10;;
72797;SDS011;61084;55.816;37.036;2023-10-09T01:26:40;0.10;;;0.10;;
72797;SDS011;61084;55.816;37.036;2023-10-09T01:31:43;0.28;;;0.10;;
72797;SDS011;61084;55.816;37.036;2023-10-09T01:34:19;0.00;;;0.00;;
72797;SDS011;61084;55.816;37.036;2023-10-09T01:36:51;0.20;;;0.10;;
72797;SDS011;61084;55.816;37.036;2023-10-09T01:39:20;0.00;;;0.00;;
72797;SDS011;61084;55.816;37.036;2023-10-09T01:41:50;0.00;;;0.00;;
72797;SDS011;61084;55.816;37.036;2023-10-09T01:44:23;0.00;;;0.00;;
72797;SDS011;61084;55.816;37.036;2023-10-09T01:46:52;0.20;;;0.10;;
72797;SDS011;61084;55.816;37.036;2023-10-09T01:49:22;0.35;;;0.10;;
72797;SDS011;61084;55.816;37.036;2023-10-09T01:51:58;0.20;;;0.00;;
72797;SDS011;61084;55.816;37.036;2023-10-09T01:54:26;0.20;;;0.10;;
72797;SDS011;61084;55.816;37.036;2023-10-09T01:57:06;0.10;;;0.10;;
72797;SDS011;61084;55.816;37.036;2023-10-09T01:59:39;0.00;;;0.00;;
72797;SDS011;61084;55.816;37.036;2023-10-09T02:02:16;0.03;;;0.00;;
72797;SDS011;61084;55.816;37.036;2023-10-09T02:04:56;0.10;;;0.10;;
72797;SDS011;61084;55.816;37.036;2023-10-09T02:07:40;0.08;;;0.03;;
72797;SDS011;61084;55.816;37.036;2023-10-09T02:10:08;0.10;;;0.10;;
72797;SDS011;61084;55.816;37.036;2023-10-09T02:12:47;0.20;;;0.20;;
72797;SDS011;61084;55.816;37.036;2023-10-09T02:15:28;0.20;;;0.10;;
72797;SDS011;61084;55.816;37.036;2023-10-09T02:18:18;0.43;;;0.13;;
72797;SDS011;61084;55.816;37.036;2023-10-09T02:20:49;0.32;;;0.22;;
72797;SDS011;61084;55.816;37.036;2023-10-09T02:23:44;0.95;;;0.20;;
72797;SDS011;61084;55.816;37.036;2023-10-09T02:26:11;0.22;;;0.20;;
72797;SDS011;61084;55.816;37.036;2023-10-09T02:29:03;0.20;;;0.20;;
72797;SDS011;61084;55.816;37.036;2023-10-09T02:31:45;0.10;;;0.10;;
72797;SDS011;61084;55.816;37.036;2023-10-09T02:34:17;0.10;;;0.10;;
72797;SDS011;61084;55.816;37.036;2023-10-09T02:36:47;0.10;;;0.10;;
72797;SDS011;61084;55.816;37.036;2023-10-09T02:39:24;0.20;;;0.13;;
72797;SDS011;61084;55.816;37.036;2023-10-09T02:41:53;0.57;;;0.30;;
72797;SDS011;61084;55.816;37.036;2023-10-09T02:44:28;0.15;;;0.10;;
72797;SDS011;61084;55.816;37.036;2023-10-09T02:46:57;0.43;;;0.10;;
72797;SDS011;61084;55.816;37.036;2023-10-09T02:49:24;0.20;;;0.15;;
72797;SDS011;61084;55.816;37.036;2023-10-09T02:51:52;0.73;;;0.10;;
72797;SDS011;61084;55.816;37.036;2023-10-09T02:54:20;0.32;;;0.10;;
72797;SDS011;61084;55.816;37.036;2023-10-09T02:56:50;0.50;;;0.20;;
72797;SDS011;61084;55.816;37.036;2023-10-09T02:59:32;0.20;;;0.10;;
72797;SDS011;61084;55.816;37.036;2023-10-09T03:01:58;0.10;;;0.10;;
72797;SDS011;61084;55.816;37.036;2023-10-09T03:04:25;0.13;;;0.13;;
72797;SDS011;61084;55.816;37.036;2023-10-09T03:06:55;0.10;;;0.10;;
72797;SDS011;61084;55.816;37.036;2023-10-09T03:09:23;0.20;;;0.10;;
72797;SDS011;61084;55.816;37.036;2023-10-09T03:11:54;0.55;;;0.10;;
72797;SDS011;61084;55.816;37.036;2023-10-09T03:14:30;0.15;;;0.10;;
72797;SDS011;61084;55.816;37.036;2023-10-09T03:16:57;0.28;;;0.10;;
72797;SDS011;61084;55.816;37.036;2023-10-09T03:19:25;0.10;;;0.10;;
72797;SDS011;61084;55.816;37.036;2023-10-09T03:21:52;0.38;;;0.00;;
72797;SDS011;61084;55.816;37.036;2023-10-09T03:24:18;0.08;;;0.08;;
72797;SDS011;61084;55.816;37.036;2023-10-09T03:29:11;0.20;;;0.05;;
72797;SDS011;61084;55.816;37.036;2023-10-09T03:31:37;0.10;;;0.00;;
72797;SDS011;61084;55.816;37.036;2023-10-09T03:34:06;0.55;;;0.10;;
72797;SDS011;61084;55.816;37.036;2023-10-09T03:36:36;0.30;;;0.10;;
72797;SDS011;61084;55.816;37.036;2023-10-09T03:39:05;0.10;;;0.10;;
72797;SDS011;61084;55.816;37.036;2023-10-09T03:41:44;0.00;;;0.00;;
72797;SDS011;61084;55.816;37.036;2023-10-09T03:44:13;0.00;;;0.00;;
72797;SDS011;61084;55.816;37.036;2023-10-09T03:46:46;0.20;;;0.05;;
72797;SDS011;61084;55.816;37.036;2023-10-09T03:49:12;0.00;;;0.00;;
72797;SDS011;61084;55.816;37.036;2023-10-09T03:51:41;0.10;;;0.10;;
72797;SDS011;61084;55.816;37.036;2023-10-09T03:54:07;0.00;;;0.00;;
72797;SDS011;61084;55.816;37.036;2023-10-09T03:56:33;0.20;;;0.10;;
72797;SDS011;61084;55.816;37.036;2023-10-09T03:59:00;0.10;;;0.10;;
72797;SDS011;61084;55.816;37.036;2023-10-09T04:01:27;0.10;;;0.10;;
72797;SDS011;61084;55.816;37.036;2023-10-09T04:03:53;0.03;;;0.03;;
72797;SDS011;61084;55.816;37.036;2023-10-09T04:06:26;0.57;;;0.00;;
72797;SDS011;61084;55.816;37.036;2023-10-09T04:09:04;0.22;;;0.10;;
72797;SDS011;61084;55.816;37.036;2023-10-09T04:11:48;0.25;;;0.00;;
72797;SDS011;61084;55.816;37.036;2023-10-09T04:14:36;0.10;;;0.10;;
72797;SDS011;61084;55.816;37.036;2023-10-09T04:17:14;0.32;;;0.20;;
72797;SDS011;61084;55.816;37.036;2023-10-09T04:19:58;0.00;;;0.00;;
72797;SDS011;61084;55.816;37.036;2023-10-09T04:22:59;0.60;;;0.05;;
72797;SDS011;61084;55.816;37.036;2023-10-09T04:25:30;0.00;;;0.00;;
72797;SDS011;61084;55.816;37.036;2023-10-09T04:28:11;0.05;;;0.03;;
72797;SDS011;61084;55.816;37.036;2023-10-09T04:30:47;0.20;;;0.00;;
72797;SDS011;61084;55.816;37.036;2023-10-09T04:33:24;0.03;;;0.00;;
72797;SDS011;61084;55.816;37.036;2023-10-09T04:36:05;0.08;;;0.08;;
72797;SDS011;61084;55.816;37.036;2023-10-09T04:38:42;0.10;;;0.08;;
72797;SDS011;61084;55.816;37.036;2023-10-09T04:41:27;0.00;;;0.00;;
72797;SDS011;61084;55.816;37.036;2023-10-09T04:44:19;0.10;;;0.10;;
72797;SDS011;61084;55.816;37.036;2023-10-09T04:46:49;0.20;;;0.10;;
72797;SDS011;61084;55.816;37.036;2023-10-09T04:49:34;0.75;;;0.45;;
72797;SDS011;61084;55.816;37.036;2023-10-09T04:52:14;0.10;;;0.10;;
72797;SDS011;61084;55.816;37.036;2023-10-09T04:55:04;0.30;;;0.20;;
72797;SDS011;61084;55.816;37.036;2023-10-09T05:02:54;0.30;;;0.20;;
72797;SDS011;61084;55.816;37.036;2023-10-09T05:05:22;0.22;;;0.22;;
72797;SDS011;61084;55.816;37.036;2023-10-09T05:13:33;0.63;;;0.10;;
72797;SDS011;61084;55.816;37.036;2023-10-09T05:16:10;0.60;;;0.47;;
72797;SDS011;61084;55.816;37.036;2023-10-09T05:18:51;0.55;;;0.40;;
72797;SDS011;61084;55.816;37.036;2023-10-09T05:21:54;0.90;;;0.52;;
72797;SDS011;61084;55.816;37.036;2023-10-09T05:24:24;0.77;;;0.40;;
72797;SDS011;61084;55.816;37.036;2023-10-09T05:26:52;0.60;;;0.30;;
72797;SDS011;61084;55.816;37.036;2023-10-09T05:29:22;0.55;;;0.20;;
72797;SDS011;61084;55.816;37.036;2023-10-09T05:31:50;1.48;;;0.30;;
72797;SDS011;61084;55.816;37.036;2023-10-09T05:34:27;0.88;;;0.57;;
72797;SDS011;61084;55.816;37.036;2023-10-09T05:37:03;0.77;;;0.50;;
72797;SDS011;61084;55.816;37.036;2023-10-09T05:39:54;1.45;;;0.45;;
72797;SDS011;61084;55.816;37.036;2023-10-09T05:42:31;0.60;;;0.30;;
72797;SDS011;61084;55.816;37.036;2023-10-09T05:47:34;1.02;;;0.60;;
72797;SDS011;61084;55.816;37.036;2023-10-09T05:50:00;0.68;;;0.50;;
72797;SDS011;61084;55.816;37.036;2023-10-09T05:52:46;1.25;;;0.50;;
72797;SDS011;61084;55.816;37.036;2023-10-09T05:55:21;0.65;;;0.50;;
72797;SDS011;61084;55.816;37.036;2023-10-09T05:57:51;1.58;;;0.43;;
72797;SDS011;61084;55.816;37.036;2023-10-09T06:00:36;0.80;;;0.40;;
72797;SDS011;61084;55.816;37.036;2023-10-09T06:03:20;1.60;;;0.40;;
72797;SDS011;61084;55.816;37.036;2023-10-09T06:05:51;1.52;;;0.57;;
72797;SDS011;61084;55.816;37.036;2023-10-09T06:08:25;0.70;;;0.50;;
72797;SDS011;61084;55.816;37.036;2023-10-09T06:11:07;0.47;;;0.25;;
72797;SDS011;61084;55.816;37.036;2023-10-09T06:13:55;1.52;;;0.68;;
72797;SDS011;61084;55.816;37.036;2023-10-09T06:16:45;0.52;;;0.40;;
72797;SDS011;61084;55.816;37.036;2023-10-09T06:19:41;0.50;;;0.30;;
72797;SDS011;61084;55.816;37.036;2023-10-09T06:22:10;0.52;;;0.40;;
72797;SDS011;61084;55.816;37.036;2023-10-09T06:25:05;0.73;;;0.40;;
72797;SDS011;61084;55.816;37.036;2023-10-09T06:27:34;0.85;;;0.60;;
72797;SDS011;61084;55.816;37.036;2023-10-09T06:30:00;0.70;;;0.47;;
72797;SDS011;61084;55.816;37.036;2023-10-09T06:32:44;1.42;;;0.43;;
72797;SDS011;61084;55.816;37.036;2023-10-09T06:35:24;0.50;;;0.30;;
72797;SDS011;61084;55.816;37.036;2023-10-09T06:37:57;1.05;;;0.40;;
72797;SDS011;61084;55.816;37.036;2023-10-09T06:40:35;0.40;;;0.30;;
72797;SDS011;61084;55.816;37.036;2023-10-09T06:43:02;0.40;;;0.28;;
72797;SDS011;61084;55.816;37.036;2023-10-09T06:45:35;0.43;;;0.30;;
72797;SDS011;61084;55.816;37.036;2023-10-09T06:48:13;1.13;;;0.50;;
72797;SDS011;61084;55.816;37.036;2023-10-09T06:51:07;0.63;;;0.32;;
72797;SDS011;61084;55.816;37.036;2023-10-09T06:53:53;0.88;;;0.50;;
72797;SDS011;61084;55.816;37.036;2023-10-09T06:56:25;0.77;;;0.50;;
72797;SDS011;61084;55.816;37.036;2023-10-09T06:59:05;1.13;;;0.55;;
72797;SDS011;61084;55.816;37.036;2023-10-09T07:01:50;1.17;;;0.60;;
72797;SDS011;61084;55.816;37.036;2023-10-09T07:04:35;0.60;;;0.20;;
72797;SDS011;61084;55.816;37.036;2023-10-09T07:07:02;1.98;;;0.32;;
72797;SDS011;61084;55.816;37.036;2023-10-09T07:09:35;0.40;;;0.30;;
72797;SDS011;61084;55.816;37.036;2023-10-09T07:12:20;0.40;;;0.30;;
72797;SDS011;61084;55.816;37.036;2023-10-09T07:14:51;0.70;;;0.30;;
72797;SDS011;61084;55.816;37.036;2023-10-09T07:17:32;0.20;;;0.20;;
72797;SDS011;61084;55.816;37.036;2023-10-09T07:19:58;0.40;;;0.10;;
72797;SDS011;61084;55.816;37.036;2023-10-09T07:22:36;0.68;;;0.20;;
72797;SDS011;61084;55.816;37.036;2023-10-09T07:25:20;0.15;;;0.10;;
72797;SDS011;61084;55.816;37.036;2023-10-09T07:28:05;0.17;;;0.17;;
72797;SDS011;61084;55.816;37.036;2023-10-09T07:30:52;0.30;;;0.20;;
72797;SDS011;61084;55.816;37.036;2023-10-09T07:33:23;0.55;;;0.20;;
72797;SDS011;61084;55.816;37.036;2023-10-09T07:36:16;0.30;;;0.10;;
72797;SDS011;61084;55.816;37.036;2023-10-09T07:38:57;0.63;;;0.22;;
72797;SDS011;61084;55.816;37.036;2023-10-09T07:41:29;0.30;;;0.30;;
72797;SDS011;61084;55.816;37.036;2023-10-09T07:43:58;0.35;;;0.20;;
72797;SDS011;61084;55.816;37.036;2023-10-09T07:46:44;0.10;;;0.00;;
72797;SDS011;61084;55.816;37.036;2023-10-09T07:49:39;0.00;;;0.00;;
72797;SDS011;61084;55.816;37.036;2023-10-09T07:52:05;0.20;;;0.20;;
72797;SDS011;61084;55.816;37.036;2023-10-09T07:54:32;0.20;;;0.15;;
72797;SDS011;61084;55.816;37.036;2023-10-09T07:56:58;1.55;;;0.20;;
72797;SDS011;61084;55.816;37.036;2023-10-09T07:59:42;1.88;;;0.20;;
72797;SDS011;61084;55.816;37.036;2023-10-09T08:02:21;0.10;;;0.10;;
72797;SDS011;61084;55.816;37.036;2023-10-09T08:05:01;0.20;;;0.20;;
72797;SDS011;61084;55.816;37.036;2023-10-09T08:07:47;1.17;;;0.10;;
72797;SDS011;61084;55.816;37.036;2023-10-09T08:10:45;1.52;;;0.20;;
72797;SDS011;61084;55.816;37.036;2023-10-09T08:13:30;0.38;;;0.30;;
72797;SDS011;61084;55.816;37.036;2023-10-09T08:16:15;0.43;;;0.40;;
72797;SDS011;61084;55.816;37.036;2023-10-09T08:18:47;0.20;;;0.10;;
72797;SDS011;61084;55.816;37.036;2023-10-09T08:21:18;1.95;;;0.30;;
72797;SDS011;61084;55.816;37.036;2023-10-09T08:24:07;1.17;;;0.45;;
72797;SDS011;61084;55.816;37.036;2023-10-09T08:26:53;0.85;;;0.30;;
72797;SDS011;61084;55.816;37.036;2023-10-09T08:29:41;0.45;;;0.30;;
72797;SDS011;61084;55.816;37.036;2023-10-09T08:32:12;0.35;;;0.10;;
72797;SDS011;61084;55.816;37.036;2023-10-09T08:35:07;1.08;;;0.40;;
72797;SDS011;61084;55.816;37.036;2023-10-09T08:37:45;2.17;;;0.45;;
72797;SDS011;61084;55.816;37.036;2023-10-09T08:40:15;0.40;;;0.30;;
72797;SDS011;61084;55.816;37.036;2023-10-09T08:42:52;0.70;;;0.28;;
72797;SDS011;61084;55.816;37.036;2023-10-09T08:45:22;0.45;;;0.30;;
72797;SDS011;61084;55.816;37.036;2023-10-09T08:47:54;1.60;;;0.50;;
72797;SDS011;61084;55.816;37.036;2023-10-09T08:50:24;1.63;;;0.45;;
72797;SDS011;61084;55.816;37.036;2023-10-09T08:52:54;1.30;;;0.35;;
72797;SDS011;61084;55.816;37.036;2023-10-09T08:55:20;0.55;;;0.38;;
72797;SDS011;61084;55.816;37.036;2023-10-09T08:57:50;0.20;;;0.10;;
72797;SDS011;61084;55.816;37.036;2023-10-09T09:00:21;0.38;;;0.10;;
72797;SDS011;61084;55.816;37.036;2023-10-09T09:02:58;0.30;;;0.20;;
72797;SDS011;61084;55.816;37.036;2023-10-09T09:07:57;1.73;;;0.30;;
72797;SDS011;61084;55.816;37.036;2023-10-09T09:10:31;0.10;;;0.10;;
72797;SDS011;61084;55.816;37.036;2023-10-09T09:13:05;1.10;;;0.28;;
72797;SDS011;61084;55.816;37.036;2023-10-09T09:15:32;3.13;;;0.17;;
72797;SDS011;61084;55.816;37.036;2023-10-09T09:18:04;0.38;;;0.20;;
72797;SDS011;61084;55.816;37.036;2023-10-09T09:20:37;0.17;;;0.17;;
72797;SDS011;61084;55.816;37.036;2023-10-09T09:23:09;0.17;;;0.10;;
72797;SDS011;61084;55.816;37.036;2023-10-09T09:25:42;0.28;;;0.20;;
72797;SDS011;61084;55.816;37.036;2023-10-09T09:28:20;0.50;;;0.30;;
72797;SDS011;61084;55.816;37.036;2023-10-09T09:30:50;0.10;;;0.10;;
72797;SDS011;61084;55.816;37.036;2023-10-09T09:33:22;0.28;;;0.13;;
72797;SDS011;61084;55.816;37.036;2023-10-09T09:36:04;0.75;;;0.35;;
72797;SDS011;61084;55.816;37.036;2023-10-09T09:38:31;1.02;;;0.40;;
72797;SDS011;61084;55.816;37.036;2023-10-09T09:41:18;0.32;;;0.10;;
72797;SDS011;61084;55.816;37.036;2023-10-09T09:43:57;0.32;;;0.15;;
72797;SDS011;61084;55.816;37.036;2023-10-09T09:46:34;0.30;;;0.10;;
72797;SDS011;61084;55.816;37.036;2023-10-09T09:49:08;0.73;;;0.10;;
72797;SDS011;61084;55.816;37.036;2023-10-09T09:51:43;1.58;;;0.63;;
72797;SDS011;61084;55.816;37.036;2023-10-09T09:54:13;0.75;;;0.47;;
72797;SDS011;61084;55.816;37.036;2023-10-09T09:56:48;1.23;;;0.30;;
72797;SDS011;61084;55.816;37.036;2023-10-09T09:59:19;0.68;;;0.32;;
72797;SDS011;61084;55.816;37.036;2023-10-09T10:01:57;1.05;;;0.70;;
72797;SDS011;61084;55.816;37.036;2023-10-09T10:04:34;1.52;;;0.20;;
72797;SDS011;61084;55.816;37.036;2023-10-09T10:09:42;0.38;;;0.30;;
72797;SDS011;61084;55.816;37.036;2023-10-09T10:12:11;3.35;;;0.60;;
72797;SDS011;61084;55.816;37.036;2023-10-09T10:14:59;2.13;;;0.40;;
72797;SDS011;61084;55.816;37.036;2023-10-09T10:20:47;0.10;;;0.10;;
72797;SDS011;61084;55.816;37.036;2023-10-09T10:23:59;0.20;;;0.10;;
72797;SDS011;61084;55.816;37.036;2023-10-09T10:26:33;0.00;;;0.00;;
72797;SDS011;61084;55.816;37.036;2023-10-09T10:31:56;1.38;;;0.20;;
72797;SDS011;61084;55.816;37.036;2023-10-09T10:34:51;0.20;;;0.20;;
72797;SDS011;61084;55.816;37.036;2023-10-09T10:37:20;0.35;;;0.10;;
72797;SDS011;61084;55.816;37.036;2023-10-09T10:39:50;0.10;;;0.10;;
72797;SDS011;61084;55.816;37.036;2023-10-09T10:42:17;0.40;;;0.25;;
72797;SDS011;61084;55.816;37.036;2023-10-09T10:45:03;1.10;;;0.10;;
72797;SDS011;61084;55.816;37.036;2023-10-09T10:47:50;2.30;;;0.17;;
72797;SDS011;61084;55.816;37.036;2023-10-09T10:50:21;0.60;;;0.40;;
72797;SDS011;61084;55.816;37.036;2023-10-09T10:53:11;0.43;;;0.30;;
72797;SDS011;61084;55.816;37.036;2023-10-09T10:56:00;0.30;;;0.20;;
72797;SDS011;61084;55.816;37.036;2023-10-09T10:58:54;0.28;;;0.22;;
72797;SDS011;61084;55.816;37.036;2023-10-09T11:01:33;0.85;;;0.40;;
72797;SDS011;61084;55.816;37.036;2023-10-09T11:04:20;0.43;;;0.20;;
72797;SDS011;61084;55.816;37.036;2023-10-09T11:06:58;2.08;;;0.30;;
72797;SDS011;61084;55.816;37.036;2023-10-09T11:09:57;0.98;;;0.38;;
72797;SDS011;61084;55.816;37.036;2023-10-09T11:12:52;0.98;;;0.30;;
72797;SDS011;61084;55.816;37.036;2023-10-09T11:15:38;2.13;;;0.30;;
72797;SDS011;61084;55.816;37.036;2023-10-09T11:18:22;2.13;;;0.68;;
72797;SDS011;61084;55.816;37.036;2023-10-09T11:20:55;1.17;;;0.50;;
72797;SDS011;61084;55.816;37.036;2023-10-09T11:23:38;0.55;;;0.40;;
72797;SDS011;61084;55.816;37.036;2023-10-09T11:26:14;1.38;;;0.50;;
72797;SDS011;61084;55.816;37.036;2023-10-09T11:29:10;0.73;;;0.50;;
72797;SDS011;61084;55.816;37.036;2023-10-09T11:32:22;0.82;;;0.20;;
72797;SDS011;61084;55.816;37.036;2023-10-09T11:37:54;0.77;;;0.30;;
72797;SDS011;61084;55.816;37.036;2023-10-09T11:40:33;1.80;;;0.40;;
72797;SDS011;61084;55.816;37.036;2023-10-09T11:43:29;0.75;;;0.30;;
72797;SDS011;61084;55.816;37.036;2023-10-09T11:46:24;0.20;;;0.20;;
72797;SDS011;61084;55.816;37.036;2023-10-09T11:49:11;0.65;;;0.30;;
72797;SDS011;61084;55.816;37.036;2023-10-09T11:51:46;0.40;;;0.30;;
72797;SDS011;61084;55.816;37.036;2023-10-09T11:54:37;0.85;;;0.35;;
72797;SDS011;61084;55.816;37.036;2023-10-09T11:57:12;0.82;;;0.40;;
72797;SDS011;61084;55.816;37.036;2023-10-09T11:59:41;0.38;;;0.20;;
72797;SDS011;61084;55.816;37.036;2023-10-09T12:02:09;0.82;;;0.50;;
72797;SDS011;61084;55.816;37.036;2023-10-09T12:04:46;0.25;;;0.10;;
72797;SDS011;61084;55.816;37.036;2023-10-09T12:07:14;1.20;;;0.50;;
72797;SDS011;61084;55.816;37.036;2023-10-09T12:09:46;0.90;;;0.68;;
72797;SDS011;61084;55.816;37.036;2023-10-09T12:12:14;1.08;;;0.30;;
72797;SDS011;61084;55.816;37.036;2023-10-09T12:15:04;0.55;;;0.30;;
72797;SDS011;61084;55.816;37.036;2023-10-09T12:17:48;1.13;;;0.43;;
72797;SDS011;61084;55.816;37.036;2023-10-09T12:20:18;0.82;;;0.47;;
72797;SDS011;61084;55.816;37.036;2023-10-09T12:23:04;0.77;;;0.30;;
72797;SDS011;61084;55.816;37.036;2023-10-09T12:25:34;1.58;;;1.00;;
72797;SDS011;61084;55.816;37.036;2023-10-09T12:28:01;1.73;;;0.70;;
72797;SDS011;61084;55.816;37.036;2023-10-09T12:30:33;1.65;;;0.65;;
72797;SDS011;61084;55.816;37.036;2023-10-09T12:33:05;0.80;;;0.30;;
72797;SDS011;61084;55.816;37.036;2023-10-09T12:35:39;1.05;;;0.30;;
72797;SDS011;61084;55.816;37.036;2023-10-09T12:38:06;0.50;;;0.40;;
72797;SDS011;61084;55.816;37.036;2023-10-09T12:40:36;0.55;;;0.20;;
72797;SDS011;61084;55.816;37.036;2023-10-09T12:43:19;0.55;;;0.20;;
72797;SDS011;61084;55.816;37.036;2023-10-09T12:45:48;0.68;;;0.35;;
72797;SDS011;61084;55.816;37.036;2023-10-09T12:48:14;0.90;;;0.20;;
72797;SDS011;61084;55.816;37.036;2023-10-09T12:50:40;1.55;;;0.47;;
72797;SDS011;61084;55.816;37.036;2023-10-09T12:53:08;1.05;;;0.40;;
72797;SDS011;61084;55.816;37.036;2023-10-09T12:55:34;3.45;;;0.57;;
72797;SDS011;61084;55.816;37.036;2023-10-09T12:58:08;0.75;;;0.47;;
72797;SDS011;61084;55.816;37.036;2023-10-09T13:00:35;0.20;;;0.20;;
72797;SDS011;61084;55.816;37.036;2023-10-09T13:03:24;0.47;;;0.30;;
72797;SDS011;61084;55.816;37.036;2023-10-09T13:05:53;0.40;;;0.20;;
72797;SDS011;61084;55.816;37.036;2023-10-09T13:08:23;0.65;;;0.30;;
72797;SDS011;61084;55.816;37.036;2023-10-09T13:11:04;0.47;;;0.30;;
72797;SDS011;61084;55.816;37.036;2023-10-09T13:13:42;1.35;;;0.50;;
72797;SDS011;61084;55.816;37.036;2023-10-09T13:16:10;0.75;;;0.50;;
72797;SDS011;61084;55.816;37.036;2023-10-09T13:18:43;0.45;;;0.30;;
72797;SDS011;61084;55.816;37.036;2023-10-09T13:21:19;0.90;;;0.57;;
72797;SDS011;61084;55.816;37.036;2023-10-09T13:23:46;1.63;;;0.40;;
72797;SDS011;61084;55.816;37.036;2023-10-09T13:26:13;0.55;;;0.40;;
72797;SDS011;61084;55.816;37.036;2023-10-09T13:28:56;1.33;;;0.68;;
72797;SDS011;61084;55.816;37.036;2023-10-09T13:31:25;1.05;;;0.60;;
72797;SDS011;61084;55.816;37.036;2023-10-09T13:33:53;0.88;;;0.55;;
72797;SDS011;61084;55.816;37.036;2023-10-09T13:36:23;0.85;;;0.30;;
72797;SDS011;61084;55.816;37.036;2023-10-09T13:38:57;0.60;;;0.40;;
72797;SDS011;61084;55.816;37.036;2023-10-09T13:41:28;1.35;;;0.50;;
72797;SDS011;61084;55.816;37.036;2023-10-09T13:44:02;2.00;;;0.63;;
72797;SDS011;61084;55.816;37.036;2023-10-09T13:46:28;1.48;;;0.50;;
72797;SDS011;61084;55.816;37.036;2023-10-09T13:51:22;1.55;;;0.70;;
72797;SDS011;61084;55.816;37.036;2023-10-09T13:53:50;1.25;;;0.75;;
72797;SDS011;61084;55.816;37.036;2023-10-09T13:56:19;0.90;;;0.50;;
72797;SDS011;61084;55.816;37.036;2023-10-09T13:58:53;0.70;;;0.43;;
72797;SDS011;61084;55.816;37.036;2023-10-09T14:01:24;4.78;;;0.70;;
72797;SDS011;61084;55.816;37.036;2023-10-09T14:03:58;0.40;;;0.30;;
72797;SDS011;61084;55.816;37.036;2023-10-09T14:06:26;2.78;;;0.60;;
72797;SDS011;61084;55.816;37.036;2023-10-09T14:09:00;0.93;;;0.60;;
72797;SDS011;61084;55.816;37.036;2023-10-09T14:11:31;0.75;;;0.50;;
72797;SDS011;61084;55.816;37.036;2023-10-09T14:14:05;1.73;;;0.70;;
72797;SDS011;61084;55.816;37.036;2023-10-09T14:16:37;0.82;;;0.40;;
72797;SDS011;61084;55.816;37.036;2023-10-09T14:19:13;0.60;;;0.40;;
72797;SDS011;61084;55.816;37.036;2023-10-09T14:21:40;0.82;;;0.52;;
72797;SDS011;61084;55.816;37.036;2023-10-09T14:24:20;0.88;;;0.50;;
72797;SDS011;61084;55.816;37.036;2023-10-09T14:26:52;1.38;;;0.50;;
72797;SDS011;61084;55.816;37.036;2023-10-09T14:29:24;0.93;;;0.60;;
72797;SDS011;61084;55.816;37.036;2023-10-09T14:32:09;1.13;;;0.60;;
72797;SDS011;61084;55.816;37.036;2023-10-09T14:34:39;0.60;;;0.50;;
72797;SDS011;61084;55.816;37.036;2023-10-09T14:37:14;1.02;;;0.75;;
72797;SDS011;61084;55.816;37.036;2023-10-09T14:39:41;1.02;;;0.55;;
72797;SDS011;61084;55.816;37.036;2023-10-09T14:42:16;1.90;;;0.68;;
72797;SDS011;61084;55.816;37.036;2023-10-09T14:44:51;1.02;;;0.60;;
72797;SDS011;61084;55.816;37.036;2023-10-09T14:47:18;1.02;;;0.45;;
72797;SDS011;61084;55.816;37.036;2023-10-09T14:49:47;1.02;;;0.63;;
72797;SDS011;61084;55.816;37.036;2023-10-09T14:52:15;1.27;;;0.50;;
72797;SDS011;61084;55.816;37.036;2023-10-09T14:54:46;1.63;;;0.52;;
72797;SDS011;61084;55.816;37.036;2023-10-09T14:57:19;1.33;;;0.50;;
72797;SDS011;61084;55.816;37.036;2023-10-09T14:59:45;1.05;;;0.50;;
72797;SDS011;61084;55.816;37.036;2023-10-09T15:02:14;1.48;;;0.88;;
72797;SDS011;61084;55.816;37.036;2023-10-09T15:04:42;1.75;;;0.50;;
72797;SDS011;61084;55.816;37.036;2023-10-09T15:07:13;3.90;;;1.02;;
72797;SDS011;61084;55.816;37.036;2023-10-09T15:09:43;0.82;;;0.55;;
72797;SDS011;61084;55.816;37.036;2023-10-09T15:12:10;2.92;;;0.77;;
72797;SDS011;61084;55.816;37.036;2023-10-09T15:14:54;3.13;;;1.30;;
72797;SDS011;61084;55.816;37.036;2023-10-09T15:17:22;2.42;;;0.70;;
72797;SDS011;61084;55.816;37.036;2023-10-09T15:19:53;1.05;;;0.75;;
72797;SDS011;61084;55.816;37.036;2023-10-09T15:22:22;2.75;;;0.68;;
72797;SDS011;61084;55.816;37.036;2023-10-09T15:24:54;1.92;;;0.57;;
72797;SDS011;61084;55.816;37.036;2023-10-09T15:27:22;3.70;;;0.60;;
72797;SDS011;61084;55.816;37.036;2023-10-09T15:29:50;2.53;;;0.52;;
72797;SDS011;61084;55.816;37.036;2023-10-09T15:32:19;1.98;;;0.90;;
72797;SDS011;61084;55.816;37.036;2023-10-09T15:34:58;1.58;;;0.88;;
72797;SDS011;61084;55.816;37.036;2023-10-09T15:37:41;1.02;;;0.65;;
72797;SDS011;61084;55.816;37.036;2023-10-09T15:40:13;0.63;;;0.52;;
72797;SDS011;61084;55.816;37.036;2023-10-09T15:42:50;1.45;;;0.55;;
72797;SDS011;61084;55.816;37.036;2023-10-09T15:45:21;1.00;;;0.65;;
72797;SDS011;61084;55.816;37.036;2023-10-09T15:47:48;5.45;;;2.75;;
72797;SDS011;61084;55.816;37.036;2023-10-09T15:50:18;6.97;;;3.22;;
72797;SDS011;61084;55.816;37.036;2023-10-09T15:52:55;0.88;;;0.55;;
72797;SDS011;61084;55.816;37.036;2023-10-09T15:55:24;0.95;;;0.70;;
72797;SDS011;61084;55.816;37.036;2023-10-09T15:57:56;1.33;;;0.60;;
72797;SDS011;61084;55.816;37.036;2023-10-09T16:00:42;0.55;;;0.30;;